Предлагаем Вашему вниманию английскую версию страницы: AUTOTAF.ME 23724 - aviation weather forecast Nyaksimvol'

AUTOTAF 23724 - авиапрогноз Няксимволь

Сегодня рассвет 02:22 UTC, восход солнца 03:09 UTC,
местный полдень 07:40 UTC, заход солнца 12:11 UTC,
наступление темноты 12:58 UTC.

Краткий прогноз 23724 на 9 часов

AUTOTAF.ME 23724 241400Z 2415/2424 15004MPS 9999 -SN OVC003    
  FM241800 14004MPS 1500 SN BR OVC002 
  BECMG 2419/2421 2000

Детальный прогноз 23724 на 24 часа

AUTOTAF.ME 23724 241400Z 2415/2515 15004MPS 9999 -SN OVC003 TXM02/2509Z TNM04/2415Z  
  FM241800 14004MPS 1500 SN BR OVC002 
  BECMG 2419/2421 2000   
  BECMG 2501/2503 1500  
  FM250600 12003MPS 2000 SN BR OVC004 
  BECMG 2507/2509 VRB02MPS  
  FM251200 VRB02MPS 3000 -SN BR OVC001

Подробный табличный прогноз

Время (UTC) miniAUTOTAF на 3 ч WX FZLVL
M AGL
ICE TURB Т
(°С)
Тd
(°С)
f(%) QNH
(гПа)
WIND/T
12 15007G12MPS 9999 BKN020 SFC MOD FL90/FL100 MOD SFC/FL40 -3 -9 63 1007 ...
15 15004MPS 9999 -SN OVC003 -SN SFC FBL FL20/FL170 -4 -5 92 1006 ...
18 14004MPS 1500 SN BR OVC002 SN BR SFC FBL FL20/FL170 -4 -5 93 1006 ...
21 14003MPS 2000 SN BR OVC002 SN BR SFC FBL FL20/FL170 -4 -5 93 1005 ...
25.10.2020
00 13003MPS 2000 SN BR OVC002 SN BR SFC FBL FL20/FL170 -4 -5 94 1004 ...
03 12003MPS 1500 SN BR OVC002 SN BR SFC FBL FL20/FL170 -4 -4 94 1004 ...
06 12003MPS 2000 SN BR OVC004 SN BR SFC MOD FL170/FL180 -3 -4 91 1005 ...
09 VRB02MPS 2000 SN BR OVC005 SN BR SFC MOD FL170/FL180 -2 -3 90 1005 ...
12 VRB02MPS 3000 -SN BR OVC001 -SN BR SFC MOD FL170/FL180 -3 -3 98 1006 ...
15 VRB02MPS 3000 -SN BR BKN001 -SN BR SFC FBL FL20/FL150 -3 -3 98 1007 ...
18 VRB02MPS 2000 SN BR BKN001 SN BR SFC FBL FL20/FL120 -3 -4 98 1008 ...
21 VRB02MPS 5000 -SN BR BKN001 -SN BR SFC MOD FL120/FL130 -4 -4 97 1009 ...
26.10.2020
00 VRB02MPS 5000 -SN BR BKN002 -SN BR SFC MOD FL120/FL130 -4 -5 95 1010 ...
03 02003MPS 9999 -SN BKN002 -SN SFC MOD FL10/FL20 MOD SFC/FL20 -4 -5 95 1011 ...
06 02007MPS 2200 -SN BR OVC005 -SN BR SFC MOD FL10/FL20 MOD SFC/FL20 -4 -6 87 1013 ...
09 01008G13MPS 1800 SN BLSN OVC007 SN BLSN SFC MOD FL10/FL20 MOD SFC/FL20 -3 -6 86 1015 ...


Широта 62.4°, долгота 60.9°, высота 51 м абс.
Средняя высота рельефа местности 82 м абс.
Прогнозы обновляются четыре раза в сутки: в 02, 08, 14, 20 ч всемирного времени.


Выбрать прогноз по другой модели Няксимволь
Онлайн-сводка гроз по Няксимволь (для РФ и ближнего зарубежья)
Карта фактических гроз в окрестностях Няксимволь
Динамические прогностические карты (ventusky.com)
Прогностическая карта высоты нижней границы облаков по Няксимволь (windy.com)
Выбрать другой город

Прогноз предназначен для личного научно-познавательного использования частными лицами
и не предназначен для принятия важных решений и выполнения реальных полётов воздушных судов

При копировании или ином использовании любых материалов данного сайта ссылка на © meteocenter.asia обязательна.

0.85/1.4